Time;durP1;ratioP1;P1;durP2;ratioP2;P2;SDS_P1;SDS_P2;PMS_P1;PMS_P2;Temp;Humidity;BMP_temperature;BMP_pressure;BME280_temperature;BME280_humidity;BME280_pressure;Samples;Min_cycle;Max_cycle;Signal;HPM_P1;HPM_P2
2022/09/23 00:00:25;;;;;;;8.33;4.53;;;8.20;99.90;;;;;;5243057;28;20185;-51
2022/09/23 00:02:55;;;;;;;5.47;3.90;;;8.20;99.90;;;;;;5247019;28;20186;-50
2022/09/23 00:05:28;;;;;;;8.93;5.30;;;8.20;99.90;;;;;;5229035;28;20187;-50
2022/09/23 00:08:00;;;;;;;7.57;4.60;;;8.20;99.90;;;;;;5233128;28;20286;-51
2022/09/23 00:10:31;;;;;;;8.47;4.70;;;8.20;99.90;;;;;;5233140;28;20495;-51
2022/09/23 00:13:02;;;;;;;8.10;4.70;;;8.10;99.90;;;;;;5241692;28;20433;-50
2022/09/23 00:15:38;;;;;;;6.60;4.13;;;8.10;99.90;;;;;;5238032;28;20210;-50
2022/09/23 00:18:08;;;;;;;8.70;4.70;;;8.10;99.90;;;;;;5247253;28;20451;-51
2022/09/23 00:20:39;;;;;;;5.33;3.93;;;8.10;99.90;;;;;;5246836;28;20417;-49
2022/09/23 00:23:10;;;;;;;8.63;4.30;;;8.10;99.90;;;;;;5241940;28;20188;-51
2022/09/23 00:25:40;;;;;;;5.20;4.00;;;8.00;99.90;;;;;;5245367;28;20186;-51
2022/09/23 00:28:11;;;;;;;5.27;4.47;;;8.00;99.90;;;;;;5233431;28;20211;-52
2022/09/23 00:30:43;;;;;;;7.53;4.17;;;8.00;99.90;;;;;;5256741;28;20274;-51
2022/09/23 00:33:14;;;;;;;5.90;4.40;;;8.00;99.90;;;;;;5239720;28;20186;-50
2022/09/23 00:35:44;;;;;;;6.13;4.40;;;7.90;99.90;;;;;;5247443;28;20479;-50
2022/09/23 00:38:16;;;;;;;6.13;3.80;;;7.90;99.90;;;;;;5246240;28;20251;-48
2022/09/23 00:40:46;;;;;;;8.80;4.67;;;7.80;99.90;;;;;;5245837;28;20183;-51
2022/09/23 00:43:17;;;;;;;6.40;4.93;;;7.80;99.90;;;;;;5242174;28;20849;-49
2022/09/23 00:45:49;;;;;;;4.30;4.00;;;7.80;99.90;;;;;;5230049;28;20222;-49
2022/09/23 00:48:20;;;;;;;4.80;4.40;;;7.70;99.90;;;;;;5242810;28;20564;-51
2022/09/23 00:50:53;;;;;;;4.20;3.90;;;7.70;99.90;;;;;;5242641;28;20451;-49
2022/09/23 00:53:25;;;;;;;4.20;3.90;;;7.70;99.90;;;;;;5234063;28;20546;-49
2022/09/23 00:56:01;;;;;;;6.80;4.37;;;7.60;99.90;;;;;;5244785;28;20472;-49
2022/09/23 00:58:34;;;;;;;7.20;3.80;;;7.60;99.90;;;;;;5243614;28;20460;-49
2022/09/23 01:01:05;;;;;;;7.27;4.60;;;7.60;99.90;;;;;;5238402;28;20967;-49
2022/09/23 01:03:35;;;;;;;4.17;3.87;;;7.50;99.90;;;;;;5240632;28;20440;-48
2022/09/23 01:06:06;;;;;;;5.13;3.80;;;7.50;99.90;;;;;;5241212;28;20183;-49
2022/09/23 01:08:38;;;;;;;4.70;4.03;;;7.40;99.90;;;;;;5245512;28;20214;-48
2022/09/23 01:11:29;;;;;;;5.80;4.10;;;7.40;99.90;;;;;;5244668;28;20464;-49
2022/09/23 01:14:30;;;;;;;5.03;4.17;;;7.40;99.90;;;;;;5247790;28;20466;-50
2022/09/23 01:17:19;;;;;;;4.83;4.33;;;7.40;99.90;;;;;;5249718;28;20973;-49
2022/09/23 01:20:15;;;;;;;8.80;5.10;;;7.40;99.90;;;;;;5242672;28;20448;-49
2022/09/23 01:23:23;;;;;;;5.90;4.10;;;7.40;99.90;;;;;;5245006;28;20444;-48
2022/09/23 01:26:08;;;;;;;5.40;4.50;;;7.40;99.90;;;;;;5242255;28;20437;-50
2022/09/23 01:28:56;;;;;;;5.90;4.67;;;7.30;99.90;;;;;;5248338;28;20464;-49
2022/09/23 01:31:45;;;;;;;7.43;4.47;;;7.30;99.90;;;;;;5241933;28;20459;-48
2022/09/23 01:34:38;;;;;;;4.37;3.97;;;7.30;99.90;;;;;;5251183;28;20456;-51
2022/09/23 01:37:23;;;;;;;4.03;3.57;;;7.20;99.90;;;;;;5248698;28;20430;-49
2022/09/23 01:40:09;;;;;;;3.77;3.47;;;7.20;99.90;;;;;;5244599;28;20457;-48
2022/09/23 01:42:55;;;;;;;4.87;4.17;;;7.20;99.90;;;;;;5248712;28;20507;-49
2022/09/23 01:45:47;;;;;;;3.83;3.63;;;7.20;99.90;;;;;;5249230;28;20452;-51
2022/09/23 01:48:51;;;;;;;5.53;4.10;;;7.10;99.90;;;;;;5250500;28;20476;-49
2022/09/23 01:51:33;;;;;;;5.10;4.60;;;7.10;99.90;;;;;;5246084;28;20424;-49
2022/09/23 01:54:17;;;;;;;4.53;3.83;;;7.10;99.90;;;;;;5241842;28;20452;-47
2022/09/23 01:57:08;;;;;;;4.90;4.40;;;7.00;99.90;;;;;;5250773;28;20766;-48
2022/09/23 01:59:46;;;;;;;6.00;4.50;;;7.00;99.90;;;;;;5248861;28;20455;-49
2022/09/23 02:02:27;;;;;;;5.40;4.30;;;7.00;99.90;;;;;;5246475;28;20462;-48
2022/09/23 02:05:14;;;;;;;5.63;4.87;;;7.00;99.90;;;;;;5249183;28;20527;-48
2022/09/23 02:07:53;;;;;;;5.60;4.80;;;7.00;99.90;;;;;;5241239;28;20437;-50
2022/09/23 02:10:43;;;;;;;4.93;4.53;;;7.00;99.90;;;;;;5245675;28;20429;-48
2022/09/23 02:13:20;;;;;;;4.83;4.40;;;7.00;99.90;;;;;;5244540;28;20495;-48
2022/09/23 02:15:58;;;;;;;5.13;4.63;;;7.00;99.90;;;;;;5233315;28;20523;-51
2022/09/23 02:19:01;;;;;;;6.13;5.53;;;7.00;99.90;;;;;;5250099;28;20730;-49
2022/09/23 02:21:40;;;;;;;7.00;4.70;;;7.00;99.90;;;;;;5249393;28;20432;-48
2022/09/23 02:24:15;;;;;;;11.97;4.47;;;7.00;99.90;;;;;;5244813;28;20419;-49
2022/09/23 02:26:52;;;;;;;11.93;4.83;;;7.00;99.90;;;;;;5242207;28;20436;-48
2022/09/23 02:29:33;;;;;;;10.73;4.90;;;7.00;99.90;;;;;;5242368;28;20460;-49
2022/09/23 02:32:22;;;;;;;8.27;4.67;;;7.00;99.90;;;;;;5251708;28;20437;-49
2022/09/23 02:35:32;;;;;;;8.47;5.53;;;7.00;99.90;;;;;;5233701;28;20527;-47
2022/09/23 02:38:18;;;;;;;4.67;4.30;;;7.00;99.90;;;;;;5248060;28;20456;-48
2022/09/23 02:40:57;;;;;;;5.27;4.27;;;7.00;99.90;;;;;;5252172;28;20425;-48
2022/09/23 02:43:34;;;;;;;4.60;4.40;;;7.00;99.90;;;;;;5244635;28;20435;-48
2022/09/23 02:46:06;;;;;;;7.73;4.60;;;7.00;99.90;;;;;;5238469;28;20424;-49
2022/09/23 02:48:55;;;;;;;6.17;4.93;;;7.00;99.90;;;;;;5242126;28;20468;-48
2022/09/23 02:51:27;;;;;;;7.10;4.77;;;7.00;99.90;;;;;;5243861;28;20417;-47
2022/09/23 02:53:58;;;;;;;5.23;4.80;;;7.00;99.90;;;;;;5256285;28;20884;-47
2022/09/23 02:56:29;;;;;;;5.80;5.20;;;7.00;99.90;;;;;;5248814;28;20483;-48
2022/09/23 02:59:01;;;;;;;6.30;5.10;;;7.00;99.90;;;;;;5248050;28;20452;-48
2022/09/23 03:01:51;;;;;;;8.80;4.97;;;7.00;99.90;;;;;;5244590;28;20610;-48
2022/09/23 03:04:46;;;;;;;5.70;5.03;;;7.00;99.90;;;;;;5244441;28;20433;-48
2022/09/23 03:07:24;;;;;;;9.27;5.10;;;7.00;99.90;;;;;;5243665;28;20437;-48
2022/09/23 03:10:03;;;;;;;5.23;4.60;;;7.00;99.90;;;;;;5243883;28;21007;-49
2022/09/23 03:13:16;;;;;;;6.70;4.80;;;7.00;99.90;;;;;;5248840;28;20409;-48
2022/09/23 03:15:53;;;;;;;4.77;4.40;;;7.00;99.90;;;;;;5240789;28;20815;-48
2022/09/23 03:18:33;;;;;;;14.20;5.77;;;7.00;99.90;;;;;;5236746;28;20447;-48
2022/09/23 03:21:23;;;;;;;34.00;15.50;;;7.00;99.90;;;;;;5244294;28;20440;-49
2022/09/23 03:23:58;;;;;;;9.17;7.10;;;7.00;99.90;;;;;;5242041;28;20468;-48
2022/09/23 03:26:32;;;;;;;8.20;6.10;;;6.90;99.90;;;;;;5241751;28;20951;-50
2022/09/23 03:29:08;;;;;;;9.73;6.10;;;6.90;99.90;;;;;;5277653;22;20493;-52
2022/09/23 03:31:40;;;;;;;10.63;4.37;;;6.90;99.90;;;;;;5254989;28;20561;-51
2022/09/23 03:34:26;;;;;;;5.20;4.80;;;6.90;99.90;;;;;;5252444;28;20467;-52
2022/09/23 03:37:06;;;;;;;8.00;4.50;;;6.90;99.90;;;;;;5254478;28;20419;-53
2022/09/23 03:39:45;;;;;;;6.07;4.60;;;6.80;99.90;;;;;;5260477;28;20806;-51
2022/09/23 03:42:20;;;;;;;9.47;4.70;;;6.80;99.90;;;;;;5249928;28;20412;-51
2022/09/23 03:44:53;;;;;;;10.70;5.20;;;6.80;99.90;;;;;;5250218;28;20437;-49
2022/09/23 03:47:26;;;;;;;6.00;5.10;;;6.70;99.90;;;;;;5249307;28;20433;-52
2022/09/23 03:49:57;;;;;;;5.87;5.03;;;6.70;99.90;;;;;;5246991;28;20889;-49
2022/09/23 03:52:28;;;;;;;14.50;4.97;;;6.70;99.90;;;;;;5247373;28;20467;-53
2022/09/23 03:54:58;;;;;;;10.43;5.40;;;6.70;99.90;;;;;;5254478;28;20224;-52
2022/09/23 03:57:30;;;;;;;8.23;5.00;;;6.70;99.90;;;;;;5247384;28;20859;-52
2022/09/23 04:00:02;;;;;;;4.20;3.80;;;6.70;99.90;;;;;;5247213;28;20198;-51
2022/09/23 04:02:33;;;;;;;12.43;5.30;;;6.70;99.90;;;;;;5241076;28;20432;-52
2022/09/23 04:05:04;;;;;;;6.00;4.93;;;6.70;99.90;;;;;;5247358;28;20446;-51
2022/09/23 04:07:35;;;;;;;5.20;3.93;;;6.70;99.90;;;;;;5247142;28;20198;-52
2022/09/23 04:10:06;;;;;;;6.00;4.60;;;6.60;99.90;;;;;;5244896;28;20547;-50
2022/09/23 04:12:37;;;;;;;6.40;4.60;;;6.60;99.90;;;;;;5250612;28;20224;-52
2022/09/23 04:15:08;;;;;;;12.23;4.97;;;6.60;99.90;;;;;;5245731;28;20476;-53
2022/09/23 04:17:38;;;;;;;5.10;3.80;;;6.60;99.90;;;;;;5247417;28;20212;-52
2022/09/23 04:20:09;;;;;;;7.90;5.40;;;6.60;99.90;;;;;;5246939;28;20315;-53
2022/09/23 04:22:40;;;;;;;6.40;4.47;;;6.60;99.90;;;;;;5247042;28;20182;-52
2022/09/23 04:25:10;;;;;;;5.70;4.33;;;6.60;99.90;;;;;;5247738;28;20177;-51
2022/09/23 04:27:41;;;;;;;5.70;4.30;;;6.60;99.90;;;;;;5238319;28;20424;-51
2022/09/23 04:30:12;;;;;;;7.40;3.93;;;6.60;99.90;;;;;;5243967;28;20196;-52
2022/09/23 04:32:43;;;;;;;7.63;4.40;;;6.60;99.90;;;;;;5245667;28;20560;-51
2022/09/23 04:35:13;;;;;;;8.40;5.13;;;6.60;99.90;;;;;;5250799;28;20528;-52
2022/09/23 04:37:46;;;;;;;8.83;5.10;;;6.60;99.90;;;;;;5246851;28;20231;-52
2022/09/23 04:40:18;;;;;;;7.50;4.83;;;6.50;99.90;;;;;;5252251;28;20529;-52
2022/09/23 04:42:49;;;;;;;6.10;4.43;;;6.50;99.90;;;;;;5232988;28;20416;-52
2022/09/23 04:45:19;;;;;;;6.40;5.00;;;6.50;99.90;;;;;;5245363;28;20444;-49
2022/09/23 04:47:50;;;;;;;5.17;4.67;;;6.50;99.90;;;;;;5246186;28;20440;-48
2022/09/23 04:50:20;;;;;;;8.77;5.07;;;6.50;99.90;;;;;;5250548;28;20189;-49
2022/09/23 04:52:52;;;;;;;9.10;4.90;;;6.40;99.90;;;;;;5262534;28;20258;-48
2022/09/23 04:55:23;;;;;;;9.00;5.07;;;6.40;99.90;;;;;;5259211;28;20217;-48
2022/09/23 04:57:54;;;;;;;14.03;6.00;;;6.40;99.90;;;;;;5251411;28;20892;-48
2022/09/23 05:00:27;;;;;;;5.90;5.30;;;6.40;99.90;;;;;;5244440;28;20319;-50
2022/09/23 05:02:57;;;;;;;8.77;5.47;;;6.30;99.90;;;;;;5243581;28;20192;-48
2022/09/23 05:05:29;;;;;;;7.50;5.20;;;6.30;99.90;;;;;;5250661;28;20434;-50
2022/09/23 05:08:00;;;;;;;7.90;5.90;;;6.40;99.90;;;;;;5244956;28;20174;-48
2022/09/23 05:10:31;;;;;;;7.43;4.87;;;6.40;99.90;;;;;;5248736;28;20463;-48
2022/09/23 05:13:01;;;;;;;5.83;5.03;;;6.40;99.90;;;;;;5250248;28;20182;-49
2022/09/23 05:15:32;;;;;;;8.70;5.27;;;6.40;99.90;;;;;;5256000;28;20407;-48
2022/09/23 05:18:02;;;;;;;9.63;5.60;;;6.40;99.90;;;;;;5251399;28;20212;-47
2022/09/23 05:20:33;;;;;;;5.93;5.40;;;6.50;99.90;;;;;;5251833;28;20265;-48
2022/09/23 05:23:04;;;;;;;11.90;5.47;;;6.50;99.90;;;;;;5249507;28;20246;-47
2022/09/23 05:25:34;;;;;;;6.03;5.27;;;6.50;99.90;;;;;;5248080;28;20224;-48
2022/09/23 05:28:05;;;;;;;9.33;5.20;;;6.60;99.90;;;;;;5248090;28;20225;-48
2022/09/23 05:30:36;;;;;;;7.73;5.57;;;6.60;99.90;;;;;;5249732;28;20606;-48
2022/09/23 05:33:06;;;;;;;6.90;5.87;;;6.60;99.90;;;;;;5249079;28;20795;-48
2022/09/23 05:35:37;;;;;;;7.27;5.47;;;6.70;99.90;;;;;;5251910;28;20208;-49
2022/09/23 05:38:08;;;;;;;5.97;4.83;;;6.80;99.90;;;;;;5250655;28;20208;-49
2022/09/23 05:40:39;;;;;;;9.90;5.80;;;6.80;99.90;;;;;;5228596;28;20189;-49
2022/09/23 05:43:09;;;;;;;8.53;5.73;;;6.90;99.90;;;;;;5253987;28;20512;-48
2022/09/23 05:45:40;;;;;;;6.50;5.03;;;6.90;99.90;;;;;;5247841;28;20214;-49
2022/09/23 05:48:10;;;;;;;9.90;5.23;;;7.00;99.90;;;;;;5249921;28;20197;-49
2022/09/23 05:50:51;;;;;;;10.20;5.27;;;7.10;99.90;;;;;;5249243;28;20196;-48
2022/09/23 05:53:22;;;;;;;8.83;6.17;;;7.20;99.90;;;;;;5245162;28;20188;-49
2022/09/23 05:55:53;;;;;;;6.00;5.37;;;7.30;99.90;;;;;;5245713;28;20551;-49
2022/09/23 05:58:24;;;;;;;7.63;5.37;;;7.40;99.90;;;;;;5245348;28;20203;-49
2022/09/23 06:00:55;;;;;;;7.20;4.83;;;7.80;99.90;;;;;;5245529;28;20420;-49
2022/09/23 06:03:26;;;;;;;5.10;4.63;;;9.60;99.90;;;;;;5237672;28;20521;-48
2022/09/23 06:05:56;;;;;;;11.57;4.97;;;12.30;99.90;;;;;;5244138;28;20523;-48
2022/09/23 06:08:27;;;;;;;8.73;4.27;;;15.00;99.90;;;;;;5246870;28;20198;-48
2022/09/23 06:11:03;;;;;;;4.90;4.40;;;17.30;92.80;;;;;;5244833;28;20248;-49
2022/09/23 06:13:36;;;;;;;5.20;4.53;;;19.30;66.20;;;;;;5248138;28;20193;-48
2022/09/23 06:16:12;;;;;;;5.03;3.70;;;20.60;56.40;;;;;;5239477;28;20502;-50
2022/09/23 06:18:44;;;;;;;9.90;5.40;;;21.30;53.00;;;;;;5244229;28;20462;-48
2022/09/23 06:21:16;;;;;;;5.03;4.60;;;21.80;49.40;;;;;;5249869;28;20460;-48
2022/09/23 06:23:47;;;;;;;3.43;3.13;;;22.00;48.80;;;;;;5250049;28;20520;-48
2022/09/23 06:26:17;;;;;;;4.60;3.73;;;22.60;48.00;;;;;;5241966;28;20518;-50
2022/09/23 06:28:49;;;;;;;3.63;3.40;;;23.50;44.40;;;;;;5243199;28;20218;-48
2022/09/23 06:31:19;;;;;;;3.67;3.47;;;24.20;43.80;;;;;;5249220;28;20177;-48
2022/09/23 06:33:50;;;;;;;4.80;4.37;;;24.60;42.10;;;;;;5245117;28;20415;-47
2022/09/23 06:36:23;;;;;;;4.00;3.27;;;24.80;41.50;;;;;;5248763;28;20639;-49
2022/09/23 06:38:54;;;;;;;5.13;3.53;;;24.80;40.50;;;;;;5248906;28;20750;-48
2022/09/23 06:41:25;;;;;;;4.33;3.93;;;24.40;41.60;;;;;;5249238;28;20573;-47
2022/09/23 06:43:56;;;;;;;3.60;3.00;;;24.40;40.60;;;;;;5247016;28;20527;-47
2022/09/23 06:46:26;;;;;;;4.30;3.17;;;24.60;40.50;;;;;;5249284;28;20178;-47
2022/09/23 06:48:58;;;;;;;3.57;3.37;;;25.00;39.60;;;;;;5246803;28;20286;-46
2022/09/23 06:51:28;;;;;;;4.13;3.10;;;25.80;39.10;;;;;;5248350;28;20245;-48
2022/09/23 06:53:59;;;;;;;4.10;3.80;;;26.50;37.40;;;;;;5249126;28;20780;-48
2022/09/23 06:56:29;;;;;;;4.33;3.67;;;26.70;36.80;;;;;;5249124;28;20255;-48
2022/09/23 06:59:00;;;;;;;5.40;3.43;;;26.60;36.70;;;;;;5247237;28;20194;-48
2022/09/23 07:01:30;;;;;;;6.80;2.90;;;26.50;36.20;;;;;;5246638;28;20181;-49
2022/09/23 07:04:01;;;;;;;4.00;3.60;;;26.40;36.50;;;;;;5239959;28;20179;-47
2022/09/23 07:06:32;;;;;;;4.40;2.97;;;26.60;36.20;;;;;;5246284;28;20177;-48
2022/09/23 07:09:04;;;;;;;4.10;3.37;;;27.00;36.00;;;;;;5248417;28;20194;-48
2022/09/23 07:11:34;;;;;;;5.40;3.20;;;27.90;34.50;;;;;;5245031;28;20744;-47
2022/09/23 07:14:05;;;;;;;9.07;3.30;;;28.50;33.40;;;;;;5242751;28;20464;-48
2022/09/23 07:16:35;;;;;;;6.30;3.60;;;28.90;32.70;;;;;;5243944;28;20179;-47
2022/09/23 07:19:06;;;;;;;5.23;2.43;;;29.20;32.10;;;;;;5248852;28;20198;-47
2022/09/23 07:21:36;;;;;;;2.57;2.37;;;29.60;31.40;;;;;;5248279;28;20208;-49
2022/09/23 07:24:07;;;;;;;3.83;2.67;;;29.50;31.30;;;;;;5247948;28;20175;-46
2022/09/23 07:26:38;;;;;;;3.50;3.10;;;29.50;31.50;;;;;;5241103;28;20978;-48
2022/09/23 07:29:12;;;;;;;3.87;3.57;;;29.10;30.80;;;;;;5244104;28;20206;-47
2022/09/23 07:31:43;;;;;;;2.67;2.57;;;28.40;31.60;;;;;;5247825;28;20182;-49
2022/09/23 07:34:13;;;;;;;4.03;2.70;;;27.80;32.00;;;;;;5246843;28;20456;-47
2022/09/23 07:36:44;;;;;;;3.67;2.80;;;27.10;33.10;;;;;;5247635;28;20255;-48
2022/09/23 07:39:14;;;;;;;4.93;2.80;;;26.70;35.00;;;;;;5246900;28;20754;-49
2022/09/23 07:41:45;;;;;;;3.43;3.23;;;27.00;33.80;;;;;;5246086;28;20209;-49
2022/09/23 07:44:16;;;;;;;4.97;2.70;;;27.30;33.30;;;;;;5245237;28;20217;-47
2022/09/23 07:46:50;;;;;;;3.17;2.90;;;27.70;33.10;;;;;;5245966;28;20232;-48
2022/09/23 07:49:21;;;;;;;3.03;2.73;;;26.80;34.70;;;;;;5246631;28;21003;-49
2022/09/23 07:51:51;;;;;;;5.13;2.73;;;26.60;35.70;;;;;;5229842;28;20528;-48
2022/09/23 07:54:24;;;;;;;4.97;2.60;;;26.20;36.20;;;;;;5247197;28;20740;-47
2022/09/23 07:56:55;;;;;;;4.30;3.53;;;25.50;37.50;;;;;;5247611;28;20728;-47
2022/09/23 07:59:26;;;;;;;3.23;3.00;;;23.90;39.00;;;;;;5246993;28;20455;-47
2022/09/23 08:01:56;;;;;;;2.53;2.43;;;22.80;41.30;;;;;;5244531;28;20513;-49
2022/09/23 08:04:29;;;;;;;4.10;3.80;;;21.70;43.10;;;;;;5236695;28;20210;-48
2022/09/23 08:07:03;;;;;;;3.23;3.00;;;20.90;44.90;;;;;;5248420;28;20554;-47
2022/09/23 08:09:40;;;;;;;5.93;3.70;;;20.10;46.20;;;;;;5262554;28;20543;-47
2022/09/23 08:12:15;;;;;;;7.60;4.00;;;19.60;47.20;;;;;;5238431;28;20485;-48
2022/09/23 08:14:46;;;;;;;4.80;4.20;;;19.20;48.60;;;;;;5245410;28;20494;-49
2022/09/23 08:17:17;;;;;;;6.33;4.60;;;18.80;49.30;;;;;;5242013;28;20468;-48
2022/09/23 08:19:47;;;;;;;5.93;4.83;;;18.70;50.10;;;;;;5243693;28;20546;-47
2022/09/23 08:22:18;;;;;;;4.20;3.70;;;18.60;50.30;;;;;;5231872;28;20178;-48
2022/09/23 08:24:49;;;;;;;7.77;4.20;;;18.20;51.20;;;;;;5237779;28;20178;-49
2022/09/23 08:27:20;;;;;;;5.97;5.17;;;18.10;51.40;;;;;;5251688;28;20940;-49
2022/09/23 08:29:51;;;;;;;5.27;4.77;;;17.70;52.20;;;;;;5243488;28;20259;-47
2022/09/23 08:32:21;;;;;;;7.17;5.30;;;17.30;53.20;;;;;;5251105;28;20185;-49
2022/09/23 08:34:52;;;;;;;4.50;3.83;;;17.10;54.20;;;;;;5249892;28;20214;-48
2022/09/23 08:37:22;;;;;;;4.40;4.10;;;16.70;55.10;;;;;;5246402;28;20190;-48
2022/09/23 08:39:53;;;;;;;5.90;4.33;;;16.20;56.40;;;;;;5249811;28;20277;-47
2022/09/23 08:42:36;;;;;;;4.47;3.67;;;15.80;57.80;;;;;;5250624;28;20201;-47
2022/09/23 08:45:14;;;;;;;4.00;3.70;;;15.40;59.00;;;;;;5240117;28;20212;-48
2022/09/23 08:47:55;;;;;;;4.50;3.30;;;15.40;59.80;;;;;;5249533;28;20436;-47
2022/09/23 08:50:37;;;;;;;3.73;3.43;;;15.40;60.80;;;;;;5250369;28;20520;-47
2022/09/23 08:53:28;;;;;;;3.60;3.30;;;15.50;60.70;;;;;;5250759;28;20471;-50
2022/09/23 08:56:02;;;;;;;5.87;3.67;;;15.50;62.00;;;;;;5250189;28;20491;-48
2022/09/23 08:58:59;;;;;;;3.83;3.53;;;15.20;62.90;;;;;;5251056;28;20448;-48
2022/09/23 09:01:40;;;;;;;3.33;3.07;;;15.00;64.20;;;;;;5243533;28;20417;-48
2022/09/23 09:04:21;;;;;;;3.27;3.03;;;15.00;65.60;;;;;;5249185;28;20736;-48
2022/09/23 09:07:12;;;;;;;3.50;2.93;;;15.10;66.10;;;;;;5249963;28;20451;-52
2022/09/23 09:09:50;;;;;;;3.63;3.40;;;15.10;65.60;;;;;;5249953;28;20532;-53
2022/09/23 09:12:48;;;;;;;4.27;3.30;;;15.20;67.90;;;;;;5241596;28;20959;-53
2022/09/23 09:15:28;;;;;;;3.13;3.00;;;15.30;67.90;;;;;;5243778;28;20560;-52
2022/09/23 09:18:08;;;;;;;3.60;3.43;;;15.70;67.40;;;;;;5250359;28;20447;-53
2022/09/23 09:20:58;;;;;;;4.20;3.90;;;15.60;66.80;;;;;;5247453;28;20428;-49
2022/09/23 09:23:47;;;;;;;2.73;2.60;;;15.40;68.40;;;;;;5252682;28;20432;-53
2022/09/23 09:26:25;;;;;;;4.63;3.23;;;15.50;68.60;;;;;;5248335;28;20510;-52
2022/09/23 09:29:09;;;;;;;3.83;3.53;;;15.60;68.80;;;;;;5267532;22;20539;-52
2022/09/23 09:31:47;;;;;;;3.60;3.30;;;15.90;68.70;;;;;;5239170;28;20431;-52
2022/09/23 09:34:40;;;;;;;4.63;3.80;;;16.20;66.90;;;;;;5270523;28;20459;-51
2022/09/23 09:37:35;;;;;;;2.77;2.57;;;16.00;66.20;;;;;;5271021;28;20795;-50
2022/09/23 09:40:10;;;;;;;3.07;2.90;;;16.00;66.90;;;;;;5256532;28;20592;-51
2022/09/23 09:42:46;;;;;;;4.13;3.50;;;16.10;65.90;;;;;;5254268;28;20942;-49
2022/09/23 09:45:40;;;;;;;3.27;2.97;;;16.00;66.10;;;;;;5271129;28;20443;-48
2022/09/23 09:48:27;;;;;;;2.83;2.73;;;16.00;65.70;;;;;;5263120;28;20998;-48
2022/09/23 09:51:24;;;;;;;2.87;2.40;;;16.00;66.00;;;;;;5254506;28;20431;-49
2022/09/23 09:54:16;;;;;;;3.30;1.97;;;16.10;65.50;;;;;;5251278;28;20431;-49
2022/09/23 09:56:48;;;;;;;3.40;2.47;;;16.20;64.20;;;;;;5252165;28;20509;-49
2022/09/23 09:59:26;;;;;;;2.27;2.17;;;16.30;63.50;;;;;;5270792;28;20471;-49
2022/09/23 10:02:18;;;;;;;1.80;1.80;;;16.30;63.30;;;;;;5256469;28;20423;-49
2022/09/23 10:04:59;;;;;;;3.40;2.00;;;16.20;62.80;;;;;;5252565;28;20428;-49
2022/09/23 10:07:34;;;;;;;2.37;2.27;;;16.40;62.20;;;;;;5239254;28;20424;-50
2022/09/23 10:10:22;;;;;;;1.70;1.57;;;16.70;61.70;;;;;;5249580;28;20465;-50
2022/09/23 10:12:53;;;;;;;1.93;1.63;;;16.80;59.80;;;;;;5251840;28;20481;-49
2022/09/23 10:15:39;;;;;;;1.77;1.67;;;16.90;57.70;;;;;;5264742;28;20490;-48
2022/09/23 10:18:19;;;;;;;2.27;2.10;;;17.00;56.90;;;;;;5265137;28;20189;-50
2022/09/23 10:20:50;;;;;;;2.00;1.53;;;17.20;56.80;;;;;;5248106;28;20439;-48
2022/09/23 10:23:26;;;;;;;2.83;1.87;;;17.40;55.80;;;;;;5266138;28;20789;-48
2022/09/23 10:26:02;;;;;;;1.57;1.47;;;17.30;54.40;;;;;;5263815;28;20422;-51
2022/09/23 10:28:49;;;;;;;2.10;1.90;;;17.40;54.40;;;;;;5251887;28;20535;-50
2022/09/23 10:31:30;;;;;;;1.57;1.57;;;17.00;54.60;;;;;;5250142;28;20772;-48
2022/09/23 10:34:19;;;;;;;1.40;1.20;;;16.70;55.10;;;;;;5268385;28;20469;-50
2022/09/23 10:37:00;;;;;;;2.33;2.23;;;16.30;55.70;;;;;;5250042;28;20444;-49
2022/09/23 10:49:00;;;;;;;1.47;1.47;;;16.20;55.50;;;;;;5269617;28;20474;-56
2022/09/23 10:51:52;;;;;;;1.20;1.20;;;16.40;55.80;;;;;;5259779;28;20431;-49
2022/09/23 10:54:56;;;;;;;4.40;2.07;;;16.60;56.00;;;;;;5250392;28;20451;-49
2022/09/23 10:57:42;;;;;;;1.80;1.70;;;17.00;54.50;;;;;;5252204;28;20554;-49
2022/09/23 11:00:31;;;;;;;1.53;1.53;;;17.10;53.50;;;;;;5244519;28;20502;-51
2022/09/23 11:03:25;;;;;;;7.70;1.70;;;17.40;52.70;;;;;;5270653;28;20530;-52
2022/09/23 11:06:49;;;;;;;4.33;1.40;;;17.70;52.10;;;;;;5237531;28;20515;-50
2022/09/23 11:09:40;;;;;;;1.33;1.33;;;17.90;50.10;;;;;;5196957;28;20465;-49
2022/09/23 11:12:24;;;;;;;0.90;0.90;;;18.00;50.60;;;;;;5270405;28;20431;-51
2022/09/23 11:15:37;;;;;;;1.40;1.40;;;18.10;50.30;;;;;;5253132;28;20455;-49
2022/09/23 11:18:41;;;;;;;2.50;1.43;;;18.10;49.30;;;;;;5267225;28;20514;-54
2022/09/23 11:21:29;;;;;;;1.30;1.30;;;18.00;49.30;;;;;;5259164;28;20428;-52
2022/09/23 11:24:26;;;;;;;1.90;1.80;;;18.00;48.80;;;;;;5247532;28;20443;-50
2022/09/23 11:27:04;;;;;;;1.70;1.60;;;18.20;49.70;;;;;;5268478;28;20480;-49
2022/09/23 11:30:02;;;;;;;3.27;1.50;;;18.30;49.10;;;;;;5249297;28;20487;-48
2022/09/23 11:33:04;;;;;;;1.40;1.30;;;18.30;47.70;;;;;;5249603;28;20425;-49
2022/09/23 11:35:50;;;;;;;2.03;1.20;;;18.20;48.90;;;;;;5251693;28;20856;-50
2022/09/23 11:38:26;;;;;;;1.90;1.80;;;17.80;49.00;;;;;;5248821;28;20446;-51
2022/09/23 11:41:20;;;;;;;2.40;1.40;;;17.70;50.20;;;;;;5250867;28;20415;-50
2022/09/23 11:44:20;;;;;;;1.30;1.30;;;17.70;49.80;;;;;;5269439;28;20416;-50
2022/09/23 11:47:02;;;;;;;1.60;1.50;;;17.70;49.00;;;;;;5259043;28;20442;-49
2022/09/23 11:49:58;;;;;;;2.97;1.80;;;17.50;49.70;;;;;;5250705;28;20602;-50
2022/09/23 11:52:40;;;;;;;2.20;2.10;;;17.30;50.30;;;;;;5261158;28;20500;-49
2022/09/23 11:55:27;;;;;;;1.70;1.70;;;17.00;50.90;;;;;;5251295;28;20455;-51
2022/09/23 11:58:09;;;;;;;3.20;1.30;;;16.80;51.50;;;;;;5252181;28;20431;-51
2022/09/23 12:00:47;;;;;;;1.73;1.63;;;16.90;52.10;;;;;;5265819;28;20436;-49
2022/09/23 12:03:35;;;;;;;1.10;1.10;;;17.20;51.50;;;;;;5268206;28;20431;-50
2022/09/23 12:06:11;;;;;;;1.50;1.40;;;17.20;50.80;;;;;;5259625;28;20444;-49
2022/09/23 12:08:43;;;;;;;3.90;1.47;;;17.30;50.50;;;;;;5256705;28;20487;-49
2022/09/23 12:11:13;;;;;;;1.10;1.10;;;17.10;50.10;;;;;;5267582;28;20424;-52
2022/09/23 12:13:52;;;;;;;1.60;1.60;;;16.90;50.60;;;;;;5262424;28;20504;-49
2022/09/23 12:16:53;;;;;;;1.90;1.80;;;17.00;51.00;;;;;;5250057;28;20700;-51
2022/09/23 12:19:33;;;;;;;1.60;1.50;;;17.00;51.60;;;;;;5246872;28;20526;-50
2022/09/23 12:22:03;;;;;;;1.63;1.53;;;17.20;51.80;;;;;;5268056;28;20438;-50
2022/09/23 12:25:09;;;;;;;1.60;1.43;;;17.50;50.90;;;;;;5267772;28;20795;-50
2022/09/23 12:27:44;;;;;;;1.97;1.87;;;17.60;49.30;;;;;;5201557;28;20193;-52
2022/09/23 12:30:21;;;;;;;4.77;2.23;;;17.70;49.50;;;;;;5246013;28;20471;-50
2022/09/23 12:33:05;;;;;;;2.00;1.90;;;17.80;49.60;;;;;;5249252;28;20450;-51
2022/09/23 12:35:43;;;;;;;1.57;1.47;;;17.80;48.90;;;;;;5246259;28;20478;-49
2022/09/23 12:38:20;;;;;;;3.17;1.43;;;17.60;48.30;;;;;;5265063;28;20443;-49
2022/09/23 12:40:53;;;;;;;2.67;2.20;;;17.50;49.10;;;;;;5264171;28;20419;-50
2022/09/23 12:43:34;;;;;;;1.80;1.80;;;17.40;49.80;;;;;;5250495;28;21032;-49
2022/09/23 12:46:24;;;;;;;5.30;2.87;;;17.60;49.30;;;;;;5249399;28;20475;-49
2022/09/23 12:48:56;;;;;;;2.23;2.03;;;17.70;49.50;;;;;;5259670;28;20447;-50
2022/09/23 12:51:28;;;;;;;1.70;1.60;;;17.50;50.00;;;;;;5263056;28;20435;-50
2022/09/23 12:54:20;;;;;;;2.40;2.07;;;17.70;50.10;;;;;;5267076;28;20431;-49
2022/09/23 12:56:51;;;;;;;1.10;1.10;;;17.60;50.20;;;;;;5265120;28;20526;-50
2022/09/23 12:59:31;;;;;;;0.93;0.93;;;17.50;49.90;;;;;;5262901;28;20435;-50
2022/09/23 13:02:27;;;;;;;2.90;1.17;;;17.60;50.00;;;;;;5259301;28;20276;-51
2022/09/23 13:08:05;;;;;;;1.00;1.00;;;17.40;49.80;;;;;;5270735;28;20934;-50
2022/09/23 13:10:51;;;;;;;6.27;1.37;;;17.30;50.20;;;;;;5250662;28;20440;-49
2022/09/23 13:13:34;;;;;;;2.80;1.40;;;17.40;49.30;;;;;;5254451;28;20485;-49
2022/09/23 13:16:40;;;;;;;3.63;2.27;;;17.20;48.90;;;;;;5269933;28;20469;-49
2022/09/23 13:19:30;;;;;;;1.40;1.20;;;17.20;49.30;;;;;;5262248;28;20496;-49
2022/09/23 13:22:10;;;;;;;1.40;1.30;;;17.10;50.10;;;;;;5270438;28;20423;-47
2022/09/23 13:24:42;;;;;;;1.73;1.57;;;17.20;50.20;;;;;;5251401;28;20432;-49
2022/09/23 13:27:32;;;;;;;2.17;2.00;;;17.30;50.10;;;;;;5249577;28;20519;-49
2022/09/23 13:30:16;;;;;;;1.73;1.63;;;17.30;50.00;;;;;;5264990;28;20617;-50
2022/09/23 13:33:03;;;;;;;4.10;2.90;;;17.40;47.80;;;;;;5268336;28;20449;-48
2022/09/23 13:35:42;;;;;;;1.63;1.63;;;17.40;48.40;;;;;;5265315;28;20580;-48
2022/09/23 13:38:23;;;;;;;1.40;1.40;;;17.30;49.30;;;;;;5262555;28;20420;-49
2022/09/23 13:41:15;;;;;;;1.13;1.13;;;17.30;48.50;;;;;;5236242;28;20473;-48
2022/09/23 13:43:57;;;;;;;1.17;1.07;;;17.30;47.30;;;;;;5251962;28;20435;-49
2022/09/23 13:46:33;;;;;;;1.33;0.93;;;17.20;47.40;;;;;;5268378;28;20446;-49
2022/09/23 13:49:04;;;;;;;2.87;1.10;;;17.20;47.40;;;;;;5251973;28;20455;-50
2022/09/23 13:51:35;;;;;;;3.43;1.90;;;17.10;47.40;;;;;;5265279;28;20454;-49
2022/09/23 13:54:27;;;;;;;2.00;1.23;;;17.00;47.90;;;;;;5249007;28;20197;-51
2022/09/23 13:56:59;;;;;;;2.40;1.93;;;17.10;48.70;;;;;;5248925;28;20425;-48
2022/09/23 13:59:35;;;;;;;3.67;1.30;;;17.00;49.10;;;;;;5243982;28;20501;-51